createdAt,value
2018-11-11T00:00:08.404Z,28.38
2018-11-11T00:02:36.638Z,28.67
2018-11-11T00:05:05.451Z,26.68
2018-11-11T00:07:33.694Z,27.22
2018-11-11T00:10:01.975Z,30.00
2018-11-11T00:12:30.180Z,25.80
2018-11-11T00:14:58.398Z,25.27
2018-11-11T00:17:26.609Z,26.20
2018-11-11T00:19:54.857Z,26.62
2018-11-11T00:22:23.066Z,27.60
2018-11-11T00:24:51.280Z,27.58
2018-11-11T00:27:19.533Z,29.80
2018-11-11T00:29:47.743Z,32.40
2018-11-11T00:32:15.941Z,29.02
2018-11-11T00:34:44.142Z,29.87
2018-11-11T00:37:12.352Z,29.20
2018-11-11T00:39:40.638Z,35.10
2018-11-11T00:42:08.758Z,27.37
2018-11-11T00:44:36.973Z,28.52
2018-11-11T00:47:05.210Z,27.27
2018-11-11T00:49:33.435Z,22.77
2018-11-11T00:52:01.649Z,27.05
2018-11-11T00:54:29.846Z,24.32
2018-11-11T00:56:58.078Z,24.37
2018-11-11T00:59:26.295Z,24.37
2018-11-11T01:01:54.489Z,27.05
2018-11-11T01:04:22.694Z,26.15
2018-11-11T01:06:50.939Z,29.80
2018-11-11T01:09:19.170Z,23.62
2018-11-11T01:11:47.425Z,26.68
2018-11-11T01:14:15.720Z,25.88
2018-11-11T01:16:44.280Z,25.72
2018-11-11T01:19:12.570Z,23.77
2018-11-11T01:21:40.771Z,21.37
2018-11-11T01:24:08.991Z,26.87
2018-11-11T01:26:37.260Z,25.27
2018-11-11T01:29:05.802Z,26.55
2018-11-11T01:31:34.073Z,25.62
2018-11-11T01:34:02.420Z,24.80
2018-11-11T01:36:30.667Z,24.27
2018-11-11T01:38:58.929Z,24.10
2018-11-11T01:41:27.257Z,26.30
2018-11-11T01:43:55.493Z,25.43
2018-11-11T01:46:23.709Z,22.05
2018-11-11T01:48:51.988Z,22.87
2018-11-11T01:51:20.193Z,20.50
2018-11-11T01:53:48.457Z,22.42
2018-11-11T01:56:16.711Z,22.50
2018-11-11T01:58:44.971Z,24.95
2018-11-11T02:01:13.197Z,26.52
2018-11-11T02:03:41.469Z,24.35
2018-11-11T02:06:09.706Z,25.43
2018-11-11T02:08:37.969Z,26.02
2018-11-11T02:11:06.326Z,22.22
2018-11-11T02:13:34.587Z,29.57
2018-11-11T02:16:02.866Z,22.75
2018-11-11T02:18:31.110Z,29.20
2018-11-11T02:20:59.444Z,23.38
2018-11-11T02:23:27.658Z,23.40
2018-11-11T02:25:55.876Z,23.20
2018-11-11T02:28:24.120Z,34.18
2018-11-11T02:30:52.382Z,25.75
2018-11-11T02:33:20.614Z,25.10
2018-11-11T02:35:48.854Z,21.20
2018-11-11T02:38:17.114Z,21.10
2018-11-11T02:40:45.387Z,23.27
2018-11-11T02:43:13.644Z,19.15
2018-11-11T02:45:41.882Z,36.63
2018-11-11T02:48:10.105Z,25.17
2018-11-11T02:50:38.371Z,21.90
2018-11-11T02:53:06.594Z,22.87
2018-11-11T02:55:34.826Z,22.60
2018-11-11T02:58:03.057Z,26.10
2018-11-11T03:00:31.306Z,20.10
2018-11-11T03:02:59.534Z,24.57
2018-11-11T03:05:27.785Z,20.37
2018-11-11T03:07:55.973Z,25.57
2018-11-11T03:10:24.234Z,25.75
2018-11-11T03:12:52.463Z,28.73
2018-11-11T03:15:20.807Z,26.50
2018-11-11T03:17:49.032Z,31.12
2018-11-11T03:20:17.620Z,26.35
2018-11-11T03:22:45.818Z,25.62
2018-11-11T03:25:15.198Z,26.90
2018-11-11T03:27:43.566Z,23.60
2018-11-11T03:30:14.013Z,25.45
2018-11-11T03:32:42.194Z,25.48
2018-11-11T03:35:11.549Z,25.77
2018-11-11T03:37:40.000Z,25.05
2018-11-11T03:40:10.590Z,24.82
2018-11-11T03:42:38.805Z,24.70
2018-11-11T03:45:08.939Z,31.33
2018-11-11T03:47:37.144Z,24.10
2018-11-11T03:50:06.546Z,23.07
2018-11-11T03:52:34.766Z,25.90
2018-11-11T03:55:02.932Z,25.08
2018-11-11T03:57:31.158Z,28.05
2018-11-11T03:59:59.422Z,24.55
2018-11-11T04:02:27.616Z,25.30
2018-11-11T04:04:55.798Z,24.18
2018-11-11T04:07:23.982Z,23.98
2018-11-11T04:09:52.175Z,23.10
2018-11-11T04:12:20.551Z,24.02
2018-11-11T04:14:48.752Z,24.57
2018-11-11T04:17:16.929Z,22.90
2018-11-11T04:19:45.131Z,22.60
2018-11-11T04:22:18.695Z,26.42
2018-11-11T04:24:48.814Z,21.75
2018-11-11T04:27:17.142Z,23.18
2018-11-11T04:29:45.373Z,26.87
2018-11-11T04:32:13.726Z,24.92
2018-11-11T04:34:42.726Z,24.95
2018-11-11T04:37:11.340Z,26.23
2018-11-11T04:39:40.214Z,31.20
2018-11-11T04:42:08.426Z,28.57
2018-11-11T04:44:36.702Z,25.27
2018-11-11T04:47:04.938Z,25.65
2018-11-11T04:49:33.146Z,25.95
2018-11-11T04:52:01.394Z,24.70
2018-11-11T04:54:29.668Z,25.68
2018-11-11T04:56:57.922Z,27.40
2018-11-11T04:59:26.118Z,27.37
2018-11-11T05:01:54.327Z,32.67
2018-11-11T05:04:22.592Z,30.57
2018-11-11T05:06:50.804Z,27.87
2018-11-11T05:09:19.084Z,29.15
2018-11-11T05:11:47.418Z,28.83
2018-11-11T05:14:15.666Z,26.37
2018-11-11T05:16:43.877Z,26.70
2018-11-11T05:19:12.160Z,26.65
2018-11-11T05:21:40.472Z,26.40
2018-11-11T05:24:08.714Z,23.57
2018-11-11T05:26:36.946Z,25.25
2018-11-11T05:29:05.314Z,29.98
2018-11-11T05:31:33.510Z,28.12
2018-11-11T05:34:01.787Z,29.57
2018-11-11T05:36:30.043Z,21.55
2018-11-11T05:38:58.481Z,24.27
2018-11-11T05:41:26.722Z,22.73
2018-11-11T05:43:55.010Z,22.70
2018-11-11T05:46:23.418Z,20.05
2018-11-11T05:48:51.681Z,23.38
2018-11-11T05:51:19.941Z,28.12
2018-11-11T05:53:48.180Z,22.62
2018-11-11T05:56:16.405Z,21.73
2018-11-11T05:58:44.677Z,22.32
2018-11-11T06:01:12.866Z,23.18
2018-11-11T06:03:41.102Z,22.40
2018-11-11T06:06:09.378Z,22.05
2018-11-11T06:08:37.874Z,19.67
2018-11-11T06:11:06.145Z,22.25
2018-11-11T06:13:34.431Z,18.55
2018-11-11T06:16:02.687Z,21.55
2018-11-11T06:18:30.911Z,24.15
2018-11-11T06:20:59.115Z,23.92
2018-11-11T06:23:27.328Z,25.15
2018-11-11T06:25:55.630Z,22.48
2018-11-11T06:28:23.874Z,22.32
2018-11-11T06:30:52.156Z,24.70
2018-11-11T06:33:20.424Z,22.17
2018-11-11T06:35:48.686Z,24.85
2018-11-11T06:38:16.977Z,22.07
2018-11-11T06:40:45.279Z,22.95
2018-11-11T06:43:13.555Z,20.97
2018-11-11T06:45:41.826Z,20.23
2018-11-11T06:48:10.130Z,24.85
2018-11-11T06:50:38.382Z,22.52
2018-11-11T06:53:06.636Z,23.67
2018-11-11T06:55:34.924Z,23.05
2018-11-11T06:58:03.221Z,18.12
2018-11-11T07:00:31.471Z,23.07
2018-11-11T07:03:11.032Z,24.32
2018-11-11T07:05:39.288Z,18.55
2018-11-11T07:08:07.561Z,21.35
2018-11-11T07:10:35.934Z,19.85
2018-11-11T07:13:04.219Z,17.15
2018-11-11T07:15:32.510Z,19.87
2018-11-11T07:18:00.768Z,17.00
2018-11-11T07:20:29.047Z,16.32
2018-11-11T07:22:57.327Z,17.73
2018-11-11T07:25:25.611Z,18.62
2018-11-11T07:27:53.978Z,18.35
2018-11-11T07:30:22.265Z,18.75
2018-11-11T07:32:50.550Z,16.90
2018-11-11T07:35:18.813Z,16.57
2018-11-11T07:37:47.118Z,18.30
2018-11-11T07:40:16.176Z,16.32
2018-11-11T07:42:44.441Z,14.87
2018-11-11T07:45:12.769Z,15.25
2018-11-11T07:47:41.174Z,15.88
2018-11-11T07:50:10.395Z,14.30
2018-11-11T07:52:38.685Z,15.85
2018-11-11T07:55:08.479Z,15.18
2018-11-11T07:57:36.700Z,16.55
2018-11-11T08:00:07.168Z,15.53
2018-11-11T08:02:35.626Z,15.65
2018-11-11T08:05:04.080Z,13.53
2018-11-11T08:07:32.355Z,14.90
2018-11-11T08:10:00.629Z,15.95
2018-11-11T08:12:29.126Z,14.30
2018-11-11T08:14:57.450Z,14.93
2018-11-11T08:17:25.736Z,19.25
2018-11-11T08:19:54.014Z,14.53
2018-11-11T08:22:22.307Z,15.10
2018-11-11T08:24:50.575Z,13.10
2018-11-11T08:27:18.854Z,14.78
2018-11-11T08:29:47.194Z,15.60
2018-11-11T08:32:15.514Z,14.10
2018-11-11T08:34:43.687Z,13.72
2018-11-11T08:37:11.974Z,13.68
2018-11-11T08:39:40.238Z,13.40
2018-11-11T08:42:08.496Z,13.48
2018-11-11T08:44:36.911Z,11.25
2018-11-11T08:47:05.768Z,12.88
2018-11-11T08:49:34.070Z,13.80
2018-11-11T08:52:02.297Z,14.05
2018-11-11T08:54:32.943Z,14.03
2018-11-11T08:57:01.152Z,11.22
2018-11-11T08:59:29.407Z,11.65
2018-11-11T09:01:57.690Z,12.43
2018-11-11T09:04:25.961Z,11.25
2018-11-11T09:06:54.257Z,11.78
2018-11-11T09:09:22.518Z,12.10
2018-11-11T09:11:50.901Z,10.78
2018-11-11T09:14:19.209Z,12.15
2018-11-11T09:16:47.463Z,12.40
2018-11-11T09:19:15.714Z,12.63
2018-11-11T09:21:44.025Z,13.60
2018-11-11T09:24:12.295Z,11.25
2018-11-11T09:26:40.671Z,12.73
2018-11-11T09:29:08.923Z,13.93
2018-11-11T09:31:37.222Z,12.80
2018-11-11T09:34:05.473Z,13.72
2018-11-11T09:36:33.731Z,14.28
2018-11-11T09:39:02.101Z,12.65
2018-11-11T09:41:30.344Z,15.43
2018-11-11T09:43:58.579Z,12.30
2018-11-11T09:46:26.867Z,14.40
2018-11-11T09:48:55.246Z,12.58
2018-11-11T09:51:23.616Z,15.28
2018-11-11T09:53:51.961Z,18.70
2018-11-11T09:56:20.222Z,13.87
2018-11-11T09:58:48.614Z,13.37
2018-11-11T10:01:16.848Z,13.58
2018-11-11T10:03:50.040Z,13.80
2018-11-11T10:06:28.139Z,14.23
2018-11-11T10:09:59.247Z,14.93
2018-11-11T10:12:36.306Z,16.25
2018-11-11T10:17:15.544Z,16.40
2018-11-11T10:20:04.363Z,15.17
2018-11-11T10:22:36.623Z,17.65
2018-11-11T10:25:15.321Z,16.12
2018-11-11T10:28:47.772Z,17.73
2018-11-11T10:31:21.279Z,16.23
2018-11-11T10:33:55.120Z,20.85
2018-11-11T10:36:59.481Z,19.32
2018-11-11T10:41:35.264Z,16.90
2018-11-11T10:44:05.594Z,21.87
2018-11-11T10:47:06.894Z,17.42
2018-11-11T10:49:44.598Z,15.88
2018-11-11T10:52:12.854Z,19.50
2018-11-11T10:54:41.303Z,18.30
2018-11-11T10:57:09.986Z,19.23
2018-11-11T10:59:38.311Z,19.10
2018-11-11T11:02:11.846Z,17.27
2018-11-11T11:04:45.591Z,19.20
2018-11-11T11:07:13.894Z,15.85
2018-11-11T11:09:42.208Z,18.17
2018-11-11T11:12:10.547Z,15.93
2018-11-11T11:14:38.835Z,14.23
2018-11-11T11:17:07.244Z,16.65
2018-11-11T11:19:35.687Z,14.50
2018-11-11T11:22:04.011Z,17.17
2018-11-11T11:24:32.384Z,13.80
2018-11-11T11:27:00.818Z,16.10
2018-11-11T11:29:29.146Z,12.90
2018-11-11T11:31:57.560Z,19.97
2018-11-11T11:34:25.878Z,14.10
2018-11-11T11:36:54.227Z,16.63
2018-11-11T11:39:22.565Z,16.17
2018-11-11T11:41:50.842Z,13.30
2018-11-11T11:44:19.187Z,14.77
2018-11-11T11:46:47.444Z,14.93
2018-11-11T11:49:15.722Z,14.17
2018-11-11T11:51:44.004Z,14.47
2018-11-11T11:54:12.297Z,12.40
2018-11-11T11:56:40.555Z,12.60
2018-11-11T11:59:08.830Z,14.03
2018-11-11T12:01:37.114Z,11.67
2018-11-11T12:04:05.732Z,13.43
2018-11-11T12:06:34.083Z,13.27
2018-11-11T12:09:02.573Z,13.70
2018-11-11T12:11:30.734Z,12.53
2018-11-11T12:13:58.987Z,11.60
2018-11-11T12:16:27.245Z,11.60
2018-11-11T12:18:55.454Z,10.17
2018-11-11T12:21:23.999Z,12.23
2018-11-11T12:23:52.225Z,10.30
2018-11-11T12:26:20.575Z,11.00
2018-11-11T12:28:49.031Z,10.83
2018-11-11T12:31:17.254Z,12.20
2018-11-11T12:33:45.558Z,11.47
2018-11-11T12:36:13.795Z,10.33
2018-11-11T12:38:42.103Z,11.77
2018-11-11T12:41:10.362Z,10.10
2018-11-11T12:43:38.610Z,11.33
2018-11-11T12:46:06.911Z,11.00
2018-11-11T12:48:35.190Z,11.57
2018-11-11T12:51:03.466Z,11.57
2018-11-11T12:53:31.739Z,10.60
2018-11-11T12:55:59.964Z,10.07
2018-11-11T12:58:28.215Z,11.50
2018-11-11T13:00:56.467Z,11.47
2018-11-11T13:03:24.715Z,13.93
2018-11-11T13:05:53.286Z,11.20
2018-11-11T13:08:21.573Z,10.43
2018-11-11T13:10:49.903Z,10.97
2018-11-11T13:13:24.842Z,9.50
2018-11-11T13:15:53.086Z,9.67
2018-11-11T13:18:21.452Z,9.43
2018-11-11T13:20:49.748Z,9.93
2018-11-11T13:23:18.045Z,11.27
2018-11-11T13:25:46.323Z,8.23
2018-11-11T13:28:14.598Z,9.20
2018-11-11T13:30:42.865Z,8.93
2018-11-11T13:33:11.185Z,8.70
2018-11-11T13:35:39.466Z,8.80
2018-11-11T13:38:07.923Z,8.70
2018-11-11T13:40:36.171Z,8.03
2018-11-11T13:43:04.521Z,7.70
2018-11-11T13:45:32.887Z,7.67
2018-11-11T13:48:01.171Z,8.50
2018-11-11T13:50:29.542Z,10.67
2018-11-11T13:52:57.854Z,10.97
2018-11-11T13:55:26.139Z,11.97
2018-11-11T13:57:54.471Z,10.40
2018-11-11T14:00:25.032Z,9.47
2018-11-11T14:02:53.307Z,9.43
2018-11-11T14:05:21.689Z,6.63
2018-11-11T14:07:49.974Z,6.90
2018-11-11T14:10:18.455Z,5.60
2018-11-11T14:12:46.756Z,5.60
2018-11-11T14:15:17.461Z,5.40
2018-11-11T14:17:46.442Z,6.50
2018-11-11T14:20:16.141Z,3.83
2018-11-11T14:22:45.458Z,4.30
2018-11-11T14:25:16.337Z,4.43
2018-11-11T14:27:44.897Z,4.10
2018-11-11T14:30:16.123Z,5.23
2018-11-11T14:32:44.662Z,3.77
2018-11-11T14:35:13.282Z,2.93
2018-11-11T14:37:41.976Z,2.40
2018-11-11T14:40:15.682Z,4.57
2018-11-11T14:42:44.078Z,5.17
2018-11-11T14:45:13.516Z,3.40
2018-11-11T14:47:42.629Z,3.40
2018-11-11T14:50:12.213Z,3.63
2018-11-11T14:52:40.950Z,3.20
2018-11-11T14:55:14.889Z,4.70
2018-11-11T14:57:43.223Z,4.00
2018-11-11T15:00:19.111Z,3.40
2018-11-11T15:02:50.799Z,2.77
2018-11-11T15:05:19.023Z,3.30
2018-11-11T15:07:47.387Z,4.13
2018-11-11T15:10:15.650Z,3.47
2018-11-11T15:12:43.956Z,3.27
2018-11-11T15:15:14.666Z,2.93
2018-11-11T15:17:43.483Z,2.90
2018-11-11T15:20:12.901Z,2.27
2018-11-11T15:22:41.144Z,3.93
2018-11-11T15:25:11.875Z,2.80
2018-11-11T15:27:40.878Z,2.37
2018-11-11T15:30:13.184Z,6.13
2018-11-11T15:32:41.714Z,3.00
2018-11-11T15:35:10.078Z,3.00
2018-11-11T15:37:38.832Z,3.63
2018-11-11T15:40:08.990Z,4.17
2018-11-11T15:42:37.329Z,3.70
2018-11-11T15:45:11.029Z,3.80
2018-11-11T15:47:39.600Z,3.70
2018-11-11T15:50:10.373Z,3.90
2018-11-11T15:52:38.594Z,5.83
2018-11-11T15:55:08.599Z,4.17
2018-11-11T15:57:37.050Z,4.77
2018-11-11T16:00:07.903Z,5.47
2018-11-11T16:02:36.495Z,8.07
2018-11-11T16:05:05.486Z,6.73
2018-11-11T16:07:33.860Z,7.65
2018-11-11T16:10:02.166Z,8.10
2018-11-11T16:12:30.753Z,6.73
2018-11-11T16:14:59.026Z,8.00
2018-11-11T16:17:27.359Z,8.27
2018-11-11T16:19:55.948Z,7.47
2018-11-11T16:22:24.224Z,6.75
2018-11-11T16:24:52.498Z,7.40
2018-11-11T16:27:20.821Z,6.75
2018-11-11T16:29:49.070Z,7.08
2018-11-11T16:32:17.387Z,6.97
2018-11-11T16:34:45.623Z,6.58
2018-11-11T16:37:13.914Z,6.53
2018-11-11T16:39:42.253Z,9.55
2018-11-11T16:42:10.437Z,9.48
2018-11-11T16:44:38.704Z,7.83
2018-11-11T16:47:07.299Z,9.20
2018-11-11T16:49:35.519Z,8.98
2018-11-11T16:52:03.759Z,9.00
2018-11-11T16:54:32.002Z,12.95
2018-11-11T16:57:00.203Z,10.70
2018-11-11T16:59:28.607Z,20.55
2018-11-11T17:01:56.983Z,17.77
2018-11-11T17:04:25.294Z,11.65
2018-11-11T17:06:53.502Z,12.43
2018-11-11T17:09:21.715Z,15.15
2018-11-11T17:11:50.005Z,17.27
2018-11-11T17:14:18.316Z,16.73
2018-11-11T17:16:46.617Z,14.33
2018-11-11T17:19:15.018Z,15.00
2018-11-11T17:21:43.443Z,12.30
2018-11-11T17:24:11.545Z,13.85
2018-11-11T17:26:39.915Z,10.65
2018-11-11T17:29:08.207Z,11.93
2018-11-11T17:31:37.435Z,13.07
2018-11-11T17:34:06.167Z,10.98
2018-11-11T17:36:34.457Z,11.48
2018-11-11T17:39:02.854Z,11.30
2018-11-11T17:41:31.161Z,11.50
2018-11-11T17:43:59.406Z,10.45
2018-11-11T17:46:27.667Z,10.80
2018-11-11T17:48:55.955Z,12.28
2018-11-11T17:51:24.254Z,13.88
2018-11-11T17:53:52.564Z,14.78
2018-11-11T17:56:20.811Z,14.63
2018-11-11T17:58:49.063Z,11.28
2018-11-11T18:01:18.413Z,13.10
2018-11-11T18:03:46.670Z,11.53
2018-11-11T18:06:14.901Z,13.50
2018-11-11T18:08:43.240Z,13.20
2018-11-11T18:11:11.516Z,13.20
2018-11-11T18:13:39.773Z,16.73
2018-11-11T18:16:07.995Z,14.13
2018-11-11T18:18:36.216Z,15.15
2018-11-11T18:21:04.488Z,15.25
2018-11-11T18:23:32.687Z,14.98
2018-11-11T18:26:00.944Z,16.05
2018-11-11T18:28:35.173Z,15.45
2018-11-11T18:31:03.572Z,16.12
2018-11-11T18:33:32.038Z,15.95
2018-11-11T18:36:00.298Z,18.00
2018-11-11T18:38:28.492Z,17.12
2018-11-11T18:40:56.822Z,15.50
2018-11-11T18:43:25.941Z,15.95
2018-11-11T18:45:54.231Z,16.87
2018-11-11T18:48:22.607Z,16.75
2018-11-11T18:50:50.875Z,18.40
2018-11-11T18:53:19.131Z,17.77
2018-11-11T18:55:47.398Z,22.82
2018-11-11T18:58:15.673Z,15.70
2018-11-11T19:00:44.082Z,17.10
2018-11-11T19:03:12.360Z,16.97
2018-11-11T19:05:40.638Z,17.17
2018-11-11T19:08:08.889Z,19.07
2018-11-11T19:10:37.244Z,17.60
2018-11-11T19:13:06.877Z,20.00
2018-11-11T19:15:35.177Z,17.30
2018-11-11T19:18:03.426Z,15.23
2018-11-11T19:20:31.716Z,16.15
2018-11-11T19:22:59.965Z,19.73
2018-11-11T19:25:29.335Z,18.77
2018-11-11T19:27:58.536Z,19.15
2018-11-11T19:30:27.536Z,16.30
2018-11-11T19:32:55.706Z,19.67
2018-11-11T19:35:24.047Z,20.00
2018-11-11T19:37:53.583Z,18.60
2018-11-11T19:40:22.979Z,17.65
2018-11-11T19:42:52.061Z,17.20
2018-11-11T19:45:21.759Z,16.50
2018-11-11T19:47:50.071Z,18.80
2018-11-11T19:50:19.709Z,17.57
2018-11-11T19:52:49.248Z,17.67
2018-11-11T19:55:18.362Z,18.45
2018-11-11T19:57:46.586Z,22.70
2018-11-11T20:00:17.475Z,19.37
2018-11-11T20:02:47.602Z,17.52
2018-11-11T20:05:16.460Z,21.42
2018-11-11T20:07:45.970Z,17.35
2018-11-11T20:10:16.100Z,20.62
2018-11-11T20:12:44.388Z,20.80
2018-11-11T20:15:14.088Z,23.10
2018-11-11T20:17:42.751Z,19.62
2018-11-11T20:20:13.525Z,19.25
2018-11-11T20:22:42.022Z,19.67
2018-11-11T20:25:11.726Z,19.48
2018-11-11T20:27:40.563Z,22.50
2018-11-11T20:30:16.510Z,20.37
2018-11-11T20:32:44.833Z,19.65
2018-11-11T20:35:15.319Z,20.32
2018-11-11T20:37:43.585Z,20.65
2018-11-11T20:40:13.190Z,19.37
2018-11-11T20:42:42.029Z,25.70
2018-11-11T20:45:11.186Z,24.92
2018-11-11T20:47:40.197Z,22.42
2018-11-11T20:50:10.663Z,21.20
2018-11-11T20:52:39.660Z,20.40
2018-11-11T20:55:08.582Z,22.55
2018-11-11T20:57:37.366Z,21.45
2018-11-11T21:00:08.108Z,22.65
2018-11-11T21:02:36.401Z,22.00
2018-11-11T21:05:05.166Z,19.27
2018-11-11T21:07:33.452Z,19.48
2018-11-11T21:10:01.699Z,18.30
2018-11-11T21:12:29.941Z,22.00
2018-11-11T21:14:58.132Z,22.70
2018-11-11T21:17:26.520Z,26.90
2018-11-11T21:19:54.615Z,19.27
2018-11-11T21:22:22.811Z,45.70
2018-11-11T21:24:51.034Z,39.10
2018-11-11T21:27:19.299Z,29.65
2018-11-11T21:29:47.602Z,27.80
2018-11-11T21:32:16.033Z,21.37
2018-11-11T21:34:44.298Z,23.27
2018-11-11T21:37:12.519Z,24.07
2018-11-11T21:39:40.769Z,24.43
2018-11-11T21:42:08.995Z,23.25
2018-11-11T21:44:37.441Z,30.08
2018-11-11T21:47:05.666Z,29.32
2018-11-11T21:49:33.903Z,26.85
2018-11-11T21:52:02.120Z,37.08
2018-11-11T21:54:30.389Z,38.92
2018-11-11T21:56:58.651Z,37.10
2018-11-11T21:59:26.875Z,28.50
2018-11-11T22:01:55.074Z,28.62
2018-11-11T22:04:23.313Z,24.10
2018-11-11T22:06:51.520Z,27.17
2018-11-11T22:09:19.764Z,23.07
2018-11-11T22:11:48.018Z,20.60
2018-11-11T22:14:16.228Z,22.60
2018-11-11T22:16:44.603Z,19.17
2018-11-11T22:19:13.002Z,22.52
2018-11-11T22:21:41.242Z,22.17
2018-11-11T22:24:09.486Z,18.73
2018-11-11T22:26:37.732Z,20.15
2018-11-11T22:29:06.004Z,20.00
2018-11-11T22:31:34.253Z,21.57
2018-11-11T22:34:02.517Z,18.37
2018-11-11T22:36:30.831Z,19.70
2018-11-11T22:38:59.097Z,19.35
2018-11-11T22:41:27.360Z,23.77
2018-11-11T22:43:55.651Z,21.60
2018-11-11T22:46:23.919Z,21.37
2018-11-11T22:48:52.219Z,21.12
2018-11-11T22:51:20.443Z,20.72
2018-11-11T22:53:48.738Z,19.73
2018-11-11T22:56:16.949Z,20.20
2018-11-11T22:58:45.223Z,19.52
2018-11-11T23:01:20.633Z,15.40
2018-11-11T23:03:49.343Z,18.87
2018-11-11T23:06:17.623Z,17.90
2018-11-11T23:08:46.388Z,20.70
2018-11-11T23:11:14.896Z,19.48
2018-11-11T23:13:43.125Z,21.45
2018-11-11T23:16:11.393Z,20.17
2018-11-11T23:18:39.554Z,21.40
2018-11-11T23:21:07.797Z,19.52
2018-11-11T23:23:36.030Z,17.40
2018-11-11T23:26:04.303Z,19.92
2018-11-11T23:28:32.611Z,19.17
2018-11-11T23:31:00.837Z,23.25
2018-11-11T23:33:29.060Z,19.35
2018-11-11T23:35:57.306Z,18.65
2018-11-11T23:38:25.511Z,24.30
2018-11-11T23:40:53.739Z,22.07
2018-11-11T23:43:21.931Z,25.15
2018-11-11T23:45:50.131Z,23.60
2018-11-11T23:48:18.318Z,20.68
2018-11-11T23:50:46.558Z,22.20
2018-11-11T23:53:14.793Z,25.43
2018-11-11T23:55:43.080Z,19.65
2018-11-11T23:58:11.274Z,23.02
